sensor_id;sensor_type;location;lat;lon;timestamp;temperature;humidity
66722;SHT31;53633;49.932;10.884;2023-09-30T00:01:41;18.32;76.78
66722;SHT31;53633;49.932;10.884;2023-09-30T00:04:07;18.30;76.79
66722;SHT31;53633;49.932;10.884;2023-09-30T00:06:34;18.29;76.79
66722;SHT31;53633;49.932;10.884;2023-09-30T00:09:01;18.30;76.81
66722;SHT31;53633;49.932;10.884;2023-09-30T00:11:29;18.27;76.89
66722;SHT31;53633;49.932;10.884;2023-09-30T00:13:56;18.27;77.00
66722;SHT31;53633;49.932;10.884;2023-09-30T00:16:23;18.27;77.06
66722;SHT31;53633;49.932;10.884;2023-09-30T00:18:50;18.26;77.14
66722;SHT31;53633;49.932;10.884;2023-09-30T00:21:17;18.34;77.22
66722;SHT31;53633;49.932;10.884;2023-09-30T00:23:43;18.30;77.24
66722;SHT31;53633;49.932;10.884;2023-09-30T00:26:10;18.32;77.22
66722;SHT31;53633;49.932;10.884;2023-09-30T00:28:38;18.32;77.25
66722;SHT31;53633;49.932;10.884;2023-09-30T00:31:07;18.29;77.63
66722;SHT31;53633;49.932;10.884;2023-09-30T00:33:33;18.34;77.37
66722;SHT31;53633;49.932;10.884;2023-09-30T00:36:05;18.36;77.55
66722;SHT31;53633;49.932;10.884;2023-09-30T00:38:32;18.30;77.62
66722;SHT31;53633;49.932;10.884;2023-09-30T00:40:59;18.32;77.60
66722;SHT31;53633;49.932;10.884;2023-09-30T00:43:26;18.10;78.48
66722;SHT31;53633;49.932;10.884;2023-09-30T00:46:01;18.12;78.68
66722;SHT31;53633;49.932;10.884;2023-09-30T00:48:28;18.12;80.01
66722;SHT31;53633;49.932;10.884;2023-09-30T00:50:55;18.17;80.77
66722;SHT31;53633;49.932;10.884;2023-09-30T00:53:22;18.00;82.70
66722;SHT31;53633;49.932;10.884;2023-09-30T00:55:50;17.86;83.63
66722;SHT31;53633;49.932;10.884;2023-09-30T00:58:17;17.82;84.33
66722;SHT31;53633;49.932;10.884;2023-09-30T01:00:44;17.74;85.24
66722;SHT31;53633;49.932;10.884;2023-09-30T01:03:12;17.79;85.14
66722;SHT31;53633;49.932;10.884;2023-09-30T01:05:39;17.72;85.96
66722;SHT31;53633;49.932;10.884;2023-09-30T01:08:06;17.72;86.10
66722;SHT31;53633;49.932;10.884;2023-09-30T01:10:32;17.75;85.98
66722;SHT31;53633;49.932;10.884;2023-09-30T01:12:59;17.58;87.54
66722;SHT31;53633;49.932;10.884;2023-09-30T01:15:28;17.50;87.88
66722;SHT31;53633;49.932;10.884;2023-09-30T01:17:55;17.51;88.10
66722;SHT31;53633;49.932;10.884;2023-09-30T01:20:23;17.58;87.59
66722;SHT31;53633;49.932;10.884;2023-09-30T01:22:51;17.50;88.09
66722;SHT31;53633;49.932;10.884;2023-09-30T01:25:18;17.47;88.34
66722;SHT31;53633;49.932;10.884;2023-09-30T01:27:44;17.55;87.67
66722;SHT31;53633;49.932;10.884;2023-09-30T01:30:11;17.51;88.00
66722;SHT31;53633;49.932;10.884;2023-09-30T01:32:38;17.52;88.08
66722;SHT31;53633;49.932;10.884;2023-09-30T01:35:06;17.40;88.73
66722;SHT31;53633;49.932;10.884;2023-09-30T01:37:33;17.38;88.68
66722;SHT31;53633;49.932;10.884;2023-09-30T01:40:01;17.42;88.51
66722;SHT31;53633;49.932;10.884;2023-09-30T01:42:27;17.14;88.74
66722;SHT31;53633;49.932;10.884;2023-09-30T01:44:54;17.06;88.52
66722;SHT31;53633;49.932;10.884;2023-09-30T01:47:21;16.97;88.68
66722;SHT31;53633;49.932;10.884;2023-09-30T01:49:48;17.14;88.00
66722;SHT31;53633;49.932;10.884;2023-09-30T01:52:14;17.09;87.87
66722;SHT31;53633;49.932;10.884;2023-09-30T01:54:41;17.12;87.52
66722;SHT31;53633;49.932;10.884;2023-09-30T01:57:09;17.12;87.75
66722;SHT31;53633;49.932;10.884;2023-09-30T01:59:36;17.16;87.61
66722;SHT31;53633;49.932;10.884;2023-09-30T02:02:02;17.17;87.23
66722;SHT31;53633;49.932;10.884;2023-09-30T02:04:29;17.12;86.72
66722;SHT31;53633;49.932;10.884;2023-09-30T02:06:56;17.26;86.55
66722;SHT31;53633;49.932;10.884;2023-09-30T02:09:23;17.24;86.46
66722;SHT31;53633;49.932;10.884;2023-09-30T02:11:49;17.26;86.15
66722;SHT31;53633;49.932;10.884;2023-09-30T02:14:17;17.33;86.02
66722;SHT31;53633;49.932;10.884;2023-09-30T02:16:44;17.24;86.60
66722;SHT31;53633;49.932;10.884;2023-09-30T02:19:11;17.30;86.34
66722;SHT31;53633;49.932;10.884;2023-09-30T02:21:37;17.28;86.30
66722;SHT31;53633;49.932;10.884;2023-09-30T02:24:05;17.30;86.19
66722;SHT31;53633;49.932;10.884;2023-09-30T02:26:32;17.06;87.05
66722;SHT31;53633;49.932;10.884;2023-09-30T02:28:58;17.20;86.82
66722;SHT31;53633;49.932;10.884;2023-09-30T02:31:26;17.20;86.91
66722;SHT31;53633;49.932;10.884;2023-09-30T02:33:53;16.86;88.06
66722;SHT31;53633;49.932;10.884;2023-09-30T02:36:20;17.04;87.41
66722;SHT31;53633;49.932;10.884;2023-09-30T02:38:47;16.87;87.71
66722;SHT31;53633;49.932;10.884;2023-09-30T02:41:15;16.79;87.63
66722;SHT31;53633;49.932;10.884;2023-09-30T02:43:42;16.76;87.58
66722;SHT31;53633;49.932;10.884;2023-09-30T02:46:09;16.72;86.63
66722;SHT31;53633;49.932;10.884;2023-09-30T02:48:37;16.69;86.48
66722;SHT31;53633;49.932;10.884;2023-09-30T02:51:03;16.83;85.73
66722;SHT31;53633;49.932;10.884;2023-09-30T02:53:30;16.75;85.69
66722;SHT31;53633;49.932;10.884;2023-09-30T02:55:57;16.65;86.47
66722;SHT31;53633;49.932;10.884;2023-09-30T02:58:24;16.69;86.11
66722;SHT31;53633;49.932;10.884;2023-09-30T03:00:50;16.62;86.55
66722;SHT31;53633;49.932;10.884;2023-09-30T03:03:18;16.73;86.27
66722;SHT31;53633;49.932;10.884;2023-09-30T03:05:46;16.62;86.25
66722;SHT31;53633;49.932;10.884;2023-09-30T03:08:13;16.59;86.27
66722;SHT31;53633;49.932;10.884;2023-09-30T03:10:40;16.68;86.24
66722;SHT31;53633;49.932;10.884;2023-09-30T03:13:07;16.66;86.15
66722;SHT31;53633;49.932;10.884;2023-09-30T03:15:33;16.68;86.20
66722;SHT31;53633;49.932;10.884;2023-09-30T03:18:00;16.69;86.10
66722;SHT31;53633;49.932;10.884;2023-09-30T03:20:27;16.55;86.59
66722;SHT31;53633;49.932;10.884;2023-09-30T03:22:56;16.65;86.45
66722;SHT31;53633;49.932;10.884;2023-09-30T03:25:23;16.55;86.68
66722;SHT31;53633;49.932;10.884;2023-09-30T03:27:49;16.72;86.35
66722;SHT31;53633;49.932;10.884;2023-09-30T03:30:17;16.75;85.99
66722;SHT31;53633;49.932;10.884;2023-09-30T03:32:44;16.72;86.16
66722;SHT31;53633;49.932;10.884;2023-09-30T03:35:11;16.65;85.92
66722;SHT31;53633;49.932;10.884;2023-09-30T03:37:38;16.72;85.64
66722;SHT31;53633;49.932;10.884;2023-09-30T03:40:07;16.83;85.61
66722;SHT31;53633;49.932;10.884;2023-09-30T03:42:34;16.87;85.54
66722;SHT31;53633;49.932;10.884;2023-09-30T03:45:01;16.85;85.55
66722;SHT31;53633;49.932;10.884;2023-09-30T03:47:27;16.86;85.46
66722;SHT31;53633;49.932;10.884;2023-09-30T03:49:54;16.75;85.80
66722;SHT31;53633;49.932;10.884;2023-09-30T03:52:20;16.61;85.97
66722;SHT31;53633;49.932;10.884;2023-09-30T03:54:47;16.62;85.62
66722;SHT31;53633;49.932;10.884;2023-09-30T03:57:15;16.65;85.52
66722;SHT31;53633;49.932;10.884;2023-09-30T03:59:42;16.69;84.46
66722;SHT31;53633;49.932;10.884;2023-09-30T04:02:08;16.68;84.30
66722;SHT31;53633;49.932;10.884;2023-09-30T04:04:35;16.71;84.05
66722;SHT31;53633;49.932;10.884;2023-09-30T04:07:02;16.73;84.12
66722;SHT31;53633;49.932;10.884;2023-09-30T04:09:29;16.72;84.16
66722;SHT31;53633;49.932;10.884;2023-09-30T04:11:55;16.76;84.20
66722;SHT31;53633;49.932;10.884;2023-09-30T04:14:23;16.79;84.33
66722;SHT31;53633;49.932;10.884;2023-09-30T04:16:50;16.78;84.55
66722;SHT31;53633;49.932;10.884;2023-09-30T04:19:17;16.78;84.57
66722;SHT31;53633;49.932;10.884;2023-09-30T04:21:43;16.66;84.86
66722;SHT31;53633;49.932;10.884;2023-09-30T04:24:10;16.72;84.80
66722;SHT31;53633;49.932;10.884;2023-09-30T04:26:37;16.71;84.80
66722;SHT31;53633;49.932;10.884;2023-09-30T04:29:04;16.61;85.25
66722;SHT31;53633;49.932;10.884;2023-09-30T04:31:32;16.54;85.27
66722;SHT31;53633;49.932;10.884;2023-09-30T04:33:58;16.54;85.53
66722;SHT31;53633;49.932;10.884;2023-09-30T04:36:25;16.57;85.30
66722;SHT31;53633;49.932;10.884;2023-09-30T04:38:52;16.58;85.30
66722;SHT31;53633;49.932;10.884;2023-09-30T04:41:19;16.51;85.38
66722;SHT31;53633;49.932;10.884;2023-09-30T04:43:45;16.49;85.71
66722;SHT31;53633;49.932;10.884;2023-09-30T04:46:12;16.49;85.71
66722;SHT31;53633;49.932;10.884;2023-09-30T04:48:41;16.49;85.52
66722;SHT31;53633;49.932;10.884;2023-09-30T04:51:08;16.48;85.54
66722;SHT31;53633;49.932;10.884;2023-09-30T04:53:36;16.49;85.36
66722;SHT31;53633;49.932;10.884;2023-09-30T04:56:03;16.52;84.97
66722;SHT31;53633;49.932;10.884;2023-09-30T04:58:30;16.52;84.79
66722;SHT31;53633;49.932;10.884;2023-09-30T05:00:57;16.32;85.04
66722;SHT31;53633;49.932;10.884;2023-09-30T05:03:24;16.37;84.90
66722;SHT31;53633;49.932;10.884;2023-09-30T05:05:53;16.32;85.23
66722;SHT31;53633;49.932;10.884;2023-09-30T05:08:19;16.31;85.30
66722;SHT31;53633;49.932;10.884;2023-09-30T05:10:46;16.34;85.37
66722;SHT31;53633;49.932;10.884;2023-09-30T05:13:13;16.31;85.26
66722;SHT31;53633;49.932;10.884;2023-09-30T05:15:40;16.37;84.90
66722;SHT31;53633;49.932;10.884;2023-09-30T05:18:06;16.41;84.87
66722;SHT31;53633;49.932;10.884;2023-09-30T05:20:33;16.41;84.90
66722;SHT31;53633;49.932;10.884;2023-09-30T05:23:01;16.34;85.03
66722;SHT31;53633;49.932;10.884;2023-09-30T05:25:28;16.34;84.68
66722;SHT31;53633;49.932;10.884;2023-09-30T05:27:55;16.31;84.47
66722;SHT31;53633;49.932;10.884;2023-09-30T05:30:21;16.31;84.67
66722;SHT31;53633;49.932;10.884;2023-09-30T05:32:48;16.31;84.64
66722;SHT31;53633;49.932;10.884;2023-09-30T05:35:15;16.35;84.54
66722;SHT31;53633;49.932;10.884;2023-09-30T05:37:42;16.40;84.21
66722;SHT31;53633;49.932;10.884;2023-09-30T05:40:11;16.37;84.34
66722;SHT31;53633;49.932;10.884;2023-09-30T05:42:37;16.37;84.19
66722;SHT31;53633;49.932;10.884;2023-09-30T05:45:05;16.37;83.99
66722;SHT31;53633;49.932;10.884;2023-09-30T05:47:32;16.34;83.92
66722;SHT31;53633;49.932;10.884;2023-09-30T05:49:58;16.24;84.12
66722;SHT31;53633;49.932;10.884;2023-09-30T05:52:25;16.24;83.97
66722;SHT31;53633;49.932;10.884;2023-09-30T05:54:51;16.22;84.03
66722;SHT31;53633;49.932;10.884;2023-09-30T05:57:19;16.14;84.27
66722;SHT31;53633;49.932;10.884;2023-09-30T05:59:46;16.14;84.42
66722;SHT31;53633;49.932;10.884;2023-09-30T06:02:13;16.16;84.17
66722;SHT31;53633;49.932;10.884;2023-09-30T06:04:40;16.10;84.50
66722;SHT31;53633;49.932;10.884;2023-09-30T06:07:07;16.16;84.50
66722;SHT31;53633;49.932;10.884;2023-09-30T06:09:34;16.20;84.14
66722;SHT31;53633;49.932;10.884;2023-09-30T06:12:01;16.17;83.90
66722;SHT31;53633;49.932;10.884;2023-09-30T06:14:29;16.24;83.35
66722;SHT31;53633;49.932;10.884;2023-09-30T06:16:55;16.28;82.88
66722;SHT31;53633;49.932;10.884;2023-09-30T06:19:22;16.34;82.29
66722;SHT31;53633;49.932;10.884;2023-09-30T06:21:49;16.28;82.21
66722;SHT31;53633;49.932;10.884;2023-09-30T06:24:15;16.37;82.08
66722;SHT31;53633;49.932;10.884;2023-09-30T06:26:42;16.42;81.96
66722;SHT31;53633;49.932;10.884;2023-09-30T06:29:09;16.45;82.26
66722;SHT31;53633;49.932;10.884;2023-09-30T06:31:37;16.45;82.14
66722;SHT31;53633;49.932;10.884;2023-09-30T06:34:03;16.44;82.00
66722;SHT31;53633;49.932;10.884;2023-09-30T06:36:30;16.25;81.83
66722;SHT31;53633;49.932;10.884;2023-09-30T06:38:57;16.03;82.15
66722;SHT31;53633;49.932;10.884;2023-09-30T06:41:24;16.04;81.72
66722;SHT31;53633;49.932;10.884;2023-09-30T06:43:50;16.07;81.49
66722;SHT31;53633;49.932;10.884;2023-09-30T06:46:17;16.25;81.03
66722;SHT31;53633;49.932;10.884;2023-09-30T06:48:45;16.48;80.54
66722;SHT31;53633;49.932;10.884;2023-09-30T06:51:13;16.87;79.54
66722;SHT31;53633;49.932;10.884;2023-09-30T06:53:40;17.45;77.24
66722;SHT31;53633;49.932;10.884;2023-09-30T06:56:07;17.90;75.41
66722;SHT31;53633;49.932;10.884;2023-09-30T06:58:33;18.12;74.31
66722;SHT31;53633;49.932;10.884;2023-09-30T07:01:01;18.36;72.83
66722;SHT31;53633;49.932;10.884;2023-09-30T07:03:28;18.30;72.53
66722;SHT31;53633;49.932;10.884;2023-09-30T07:05:56;18.50;71.62
66722;SHT31;53633;49.932;10.884;2023-09-30T07:08:23;18.92;70.97
66722;SHT31;53633;49.932;10.884;2023-09-30T07:10:49;19.10;69.87
66722;SHT31;53633;49.932;10.884;2023-09-30T07:13:16;19.30;69.46
66722;SHT31;53633;49.932;10.884;2023-09-30T07:15:43;19.19;70.13
66722;SHT31;53633;49.932;10.884;2023-09-30T07:18:10;19.45;69.53
66722;SHT31;53633;49.932;10.884;2023-09-30T07:20:37;19.73;68.64
66722;SHT31;53633;49.932;10.884;2023-09-30T07:23:05;20.25;67.02
66722;SHT31;53633;49.932;10.884;2023-09-30T07:25:45;19.96;68.32
66722;SHT31;53633;49.932;10.884;2023-09-30T07:28:11;20.25;67.56
66722;SHT31;53633;49.932;10.884;2023-09-30T07:30:38;20.70;66.02
66722;SHT31;53633;49.932;10.884;2023-09-30T07:33:05;20.97;64.77
66722;SHT31;53633;49.932;10.884;2023-09-30T07:35:33;21.09;63.84
66722;SHT31;53633;49.932;10.884;2023-09-30T07:37:59;20.85;63.91
66722;SHT31;53633;49.932;10.884;2023-09-30T07:40:28;21.67;62.76
66722;SHT31;53633;49.932;10.884;2023-09-30T07:42:54;21.41;63.16
66722;SHT31;53633;49.932;10.884;2023-09-30T07:45:21;22.45;60.73
66722;SHT31;53633;49.932;10.884;2023-09-30T07:47:48;22.48;59.99
66722;SHT31;53633;49.932;10.884;2023-09-30T07:50:15;22.57;59.16
66722;SHT31;53633;49.932;10.884;2023-09-30T07:52:41;22.90;59.42
66722;SHT31;53633;49.932;10.884;2023-09-30T07:55:09;23.41;58.40
66722;SHT31;53633;49.932;10.884;2023-09-30T07:57:41;23.30;57.96
66722;SHT31;53633;49.932;10.884;2023-09-30T08:00:09;23.97;56.23
66722;SHT31;53633;49.932;10.884;2023-09-30T08:02:36;24.23;54.80
66722;SHT31;53633;49.932;10.884;2023-09-30T08:05:06;24.82;53.70
66722;SHT31;53633;49.932;10.884;2023-09-30T08:07:32;24.45;54.11
66722;SHT31;53633;49.932;10.884;2023-09-30T08:09:59;24.55;54.60
66722;SHT31;53633;49.932;10.884;2023-09-30T08:12:26;24.47;54.43
66722;SHT31;53633;49.932;10.884;2023-09-30T08:14:54;24.48;54.81
66722;SHT31;53633;49.932;10.884;2023-09-30T08:17:20;24.68;54.05
66722;SHT31;53633;49.932;10.884;2023-09-30T08:19:47;25.09;53.55
66722;SHT31;53633;49.932;10.884;2023-09-30T08:22:14;24.72;53.84
66722;SHT31;53633;49.932;10.884;2023-09-30T08:24:40;24.40;54.48
66722;SHT31;53633;49.932;10.884;2023-09-30T08:27:07;24.83;54.33
66722;SHT31;53633;49.932;10.884;2023-09-30T08:29:34;24.62;53.86
66722;SHT31;53633;49.932;10.884;2023-09-30T08:32:02;24.03;55.69
66722;SHT31;53633;49.932;10.884;2023-09-30T08:34:29;23.82;55.70
66722;SHT31;53633;49.932;10.884;2023-09-30T08:36:57;24.03;56.54
66722;SHT31;53633;49.932;10.884;2023-09-30T08:39:23;24.03;54.74
66722;SHT31;53633;49.932;10.884;2023-09-30T08:41:50;24.25;54.77
66722;SHT31;53633;49.932;10.884;2023-09-30T08:44:17;23.00;57.66
66722;SHT31;53633;49.932;10.884;2023-09-30T08:46:44;23.45;57.69
66722;SHT31;53633;49.932;10.884;2023-09-30T08:49:13;23.85;55.97
66722;SHT31;53633;49.932;10.884;2023-09-30T08:51:41;24.13;54.82
66722;SHT31;53633;49.932;10.884;2023-09-30T08:54:09;24.20;54.38
66722;SHT31;53633;49.932;10.884;2023-09-30T08:56:36;24.31;56.43
66722;SHT31;53633;49.932;10.884;2023-09-30T08:59:07;24.30;54.57
66722;SHT31;53633;49.932;10.884;2023-09-30T09:01:34;24.37;54.46
66722;SHT31;53633;49.932;10.884;2023-09-30T09:04:00;24.52;54.16
66722;SHT31;53633;49.932;10.884;2023-09-30T09:06:29;24.54;53.67
66722;SHT31;53633;49.932;10.884;2023-09-30T09:09:12;24.71;53.72
66722;SHT31;53633;49.932;10.884;2023-09-30T09:11:39;24.83;53.20
66722;SHT31;53633;49.932;10.884;2023-09-30T09:14:06;24.82;54.18
66722;SHT31;53633;49.932;10.884;2023-09-30T09:16:32;24.52;54.24
66722;SHT31;53633;49.932;10.884;2023-09-30T09:19:00;24.12;54.82
66722;SHT31;53633;49.932;10.884;2023-09-30T09:21:53;23.70;56.25
66722;SHT31;53633;49.932;10.884;2023-09-30T09:24:26;23.08;57.71
66722;SHT31;53633;49.932;10.884;2023-09-30T09:27:03;23.41;57.12
66722;SHT31;53633;49.932;10.884;2023-09-30T09:29:30;23.08;58.54
66722;SHT31;53633;49.932;10.884;2023-09-30T09:32:06;23.22;58.76
66722;SHT31;53633;49.932;10.884;2023-09-30T09:34:33;23.58;58.33
66722;SHT31;53633;49.932;10.884;2023-09-30T09:37:12;23.87;57.62
66722;SHT31;53633;49.932;10.884;2023-09-30T09:39:39;24.07;56.70
66722;SHT31;53633;49.932;10.884;2023-09-30T09:42:06;24.30;56.83
66722;SHT31;53633;49.932;10.884;2023-09-30T09:44:33;24.09;56.45
66722;SHT31;53633;49.932;10.884;2023-09-30T09:47:05;23.83;56.39
66722;SHT31;53633;49.932;10.884;2023-09-30T09:49:32;23.55;56.60
66722;SHT31;53633;49.932;10.884;2023-09-30T09:52:00;23.03;56.62
66722;SHT31;53633;49.932;10.884;2023-09-30T09:54:28;23.15;57.30
66722;SHT31;53633;49.932;10.884;2023-09-30T09:56:56;22.96;58.25
66722;SHT31;53633;49.932;10.884;2023-09-30T09:59:25;23.18;58.45
66722;SHT31;53633;49.932;10.884;2023-09-30T10:01:52;23.14;57.86
66722;SHT31;53633;49.932;10.884;2023-09-30T10:04:19;22.99;56.99
66722;SHT31;53633;49.932;10.884;2023-09-30T10:06:47;22.73;58.53
66722;SHT31;53633;49.932;10.884;2023-09-30T10:09:20;22.73;57.85
66722;SHT31;53633;49.932;10.884;2023-09-30T10:11:48;22.75;56.45
66722;SHT31;53633;49.932;10.884;2023-09-30T10:14:30;22.56;58.66
66722;SHT31;53633;49.932;10.884;2023-09-30T10:16:56;22.51;57.83
66722;SHT31;53633;49.932;10.884;2023-09-30T10:19:24;22.02;59.60
66722;SHT31;53633;49.932;10.884;2023-09-30T10:22:21;21.93;59.85
66722;SHT31;53633;49.932;10.884;2023-09-30T10:24:51;21.90;59.78
66722;SHT31;53633;49.932;10.884;2023-09-30T10:27:35;21.70;58.54
66722;SHT31;53633;49.932;10.884;2023-09-30T10:30:09;21.79;58.48
66722;SHT31;53633;49.932;10.884;2023-09-30T10:33:13;21.87;58.00
66722;SHT31;53633;49.932;10.884;2023-09-30T10:35:46;21.84;58.92
66722;SHT31;53633;49.932;10.884;2023-09-30T10:38:39;21.41;61.07
66722;SHT31;53633;49.932;10.884;2023-09-30T10:41:08;21.41;59.84
66722;SHT31;53633;49.932;10.884;2023-09-30T10:43:37;21.38;58.59
66722;SHT31;53633;49.932;10.884;2023-09-30T10:46:04;21.50;57.89
66722;SHT31;53633;49.932;10.884;2023-09-30T10:48:35;21.63;57.38
66722;SHT31;53633;49.932;10.884;2023-09-30T10:51:13;21.73;58.38
66722;SHT31;53633;49.932;10.884;2023-09-30T10:53:46;21.32;55.15
66722;SHT31;53633;49.932;10.884;2023-09-30T10:56:15;21.02;53.25
66722;SHT31;53633;49.932;10.884;2023-09-30T10:58:43;21.18;54.28
66722;SHT31;53633;49.932;10.884;2023-09-30T11:01:10;21.14;52.31
66722;SHT31;53633;49.932;10.884;2023-09-30T11:03:37;20.90;54.56
66722;SHT31;53633;49.932;10.884;2023-09-30T11:06:04;20.77;53.04
66722;SHT31;53633;49.932;10.884;2023-09-30T11:08:35;20.69;53.12
66722;SHT31;53633;49.932;10.884;2023-09-30T11:11:02;20.54;53.00
66722;SHT31;53633;49.932;10.884;2023-09-30T11:13:33;20.49;53.24
66722;SHT31;53633;49.932;10.884;2023-09-30T11:16:01;20.28;54.91
66722;SHT31;53633;49.932;10.884;2023-09-30T11:18:29;20.52;54.86
66722;SHT31;53633;49.932;10.884;2023-09-30T11:21:04;20.67;54.22
66722;SHT31;53633;49.932;10.884;2023-09-30T11:23:31;20.56;55.04
66722;SHT31;53633;49.932;10.884;2023-09-30T11:25:57;20.44;55.37
66722;SHT31;53633;49.932;10.884;2023-09-30T11:28:24;20.56;55.60
66722;SHT31;53633;49.932;10.884;2023-09-30T11:30:59;20.70;55.52
66722;SHT31;53633;49.932;10.884;2023-09-30T11:33:26;20.42;54.95
66722;SHT31;53633;49.932;10.884;2023-09-30T11:35:57;20.52;55.29
66722;SHT31;53633;49.932;10.884;2023-09-30T11:38:24;20.50;53.87
66722;SHT31;53633;49.932;10.884;2023-09-30T11:41:01;20.49;54.43
66722;SHT31;53633;49.932;10.884;2023-09-30T11:43:28;20.42;54.85
66722;SHT31;53633;49.932;10.884;2023-09-30T11:46:06;20.29;55.68
66722;SHT31;53633;49.932;10.884;2023-09-30T11:48:32;20.30;55.45
66722;SHT31;53633;49.932;10.884;2023-09-30T11:50:59;20.21;55.79
66722;SHT31;53633;49.932;10.884;2023-09-30T11:53:26;20.21;54.94
66722;SHT31;53633;49.932;10.884;2023-09-30T11:55:53;20.13;53.67
66722;SHT31;53633;49.932;10.884;2023-09-30T11:58:19;20.25;54.54
66722;SHT31;53633;49.932;10.884;2023-09-30T12:00:46;20.18;53.72
66722;SHT31;53633;49.932;10.884;2023-09-30T12:03:14;20.16;53.35
66722;SHT31;53633;49.932;10.884;2023-09-30T12:05:41;20.08;52.54
66722;SHT31;53633;49.932;10.884;2023-09-30T12:08:07;20.02;53.67
66722;SHT31;53633;49.932;10.884;2023-09-30T12:10:34;20.13;53.51
66722;SHT31;53633;49.932;10.884;2023-09-30T12:13:01;20.12;52.93
66722;SHT31;53633;49.932;10.884;2023-09-30T12:15:27;20.12;53.38
66722;SHT31;53633;49.932;10.884;2023-09-30T12:17:54;20.09;53.90
66722;SHT31;53633;49.932;10.884;2023-09-30T12:20:22;20.13;53.30
66722;SHT31;53633;49.932;10.884;2023-09-30T12:22:49;20.13;54.02
66722;SHT31;53633;49.932;10.884;2023-09-30T12:25:16;20.13;52.85
66722;SHT31;53633;49.932;10.884;2023-09-30T12:27:43;20.04;53.15
66722;SHT31;53633;49.932;10.884;2023-09-30T12:30:10;20.04;53.31
66722;SHT31;53633;49.932;10.884;2023-09-30T12:32:37;20.09;53.09
66722;SHT31;53633;49.932;10.884;2023-09-30T12:35:04;20.08;53.37
66722;SHT31;53633;49.932;10.884;2023-09-30T12:37:32;20.09;53.38
66722;SHT31;53633;49.932;10.884;2023-09-30T12:39:59;19.85;52.81
66722;SHT31;53633;49.932;10.884;2023-09-30T12:42:25;19.91;53.67
66722;SHT31;53633;49.932;10.884;2023-09-30T12:44:52;19.92;53.63
66722;SHT31;53633;49.932;10.884;2023-09-30T12:47:19;19.77;54.29
66722;SHT31;53633;49.932;10.884;2023-09-30T12:49:45;19.94;54.06
66722;SHT31;53633;49.932;10.884;2023-09-30T12:52:12;19.99;54.70
66722;SHT31;53633;49.932;10.884;2023-09-30T12:54:40;19.91;54.35
66722;SHT31;53633;49.932;10.884;2023-09-30T12:57:07;19.85;54.59
66722;SHT31;53633;49.932;10.884;2023-09-30T12:59:34;19.74;54.39
66722;SHT31;53633;49.932;10.884;2023-09-30T13:02:00;19.68;55.03
66722;SHT31;53633;49.932;10.884;2023-09-30T13:04:27;19.79;55.44
66722;SHT31;53633;49.932;10.884;2023-09-30T13:06:54;19.87;54.89
66722;SHT31;53633;49.932;10.884;2023-09-30T13:09:20;19.91;55.37
66722;SHT31;53633;49.932;10.884;2023-09-30T13:11:49;20.02;54.62
66722;SHT31;53633;49.932;10.884;2023-09-30T13:14:16;20.06;54.46
66722;SHT31;53633;49.932;10.884;2023-09-30T13:16:43;20.05;55.00
66722;SHT31;53633;49.932;10.884;2023-09-30T13:19:10;19.91;54.41
66722;SHT31;53633;49.932;10.884;2023-09-30T13:21:37;19.91;54.70
66722;SHT31;53633;49.932;10.884;2023-09-30T13:24:04;19.89;55.16
66722;SHT31;53633;49.932;10.884;2023-09-30T13:26:31;19.92;55.05
66722;SHT31;53633;49.932;10.884;2023-09-30T13:28:59;19.92;55.47
66722;SHT31;53633;49.932;10.884;2023-09-30T13:31:25;19.94;55.08
66722;SHT31;53633;49.932;10.884;2023-09-30T13:33:52;19.92;55.35
66722;SHT31;53633;49.932;10.884;2023-09-30T13:36:19;19.78;55.50
66722;SHT31;53633;49.932;10.884;2023-09-30T13:38:45;19.88;55.42
66722;SHT31;53633;49.932;10.884;2023-09-30T13:41:12;19.78;55.36
66722;SHT31;53633;49.932;10.884;2023-09-30T13:43:39;19.81;55.69
66722;SHT31;53633;49.932;10.884;2023-09-30T13:46:07;19.82;56.09
66722;SHT31;53633;49.932;10.884;2023-09-30T13:48:34;19.82;57.00
66722;SHT31;53633;49.932;10.884;2023-09-30T13:51:04;19.66;57.13
66722;SHT31;53633;49.932;10.884;2023-09-30T13:53:31;19.74;57.68
66722;SHT31;53633;49.932;10.884;2023-09-30T13:55:57;19.73;57.38
66722;SHT31;53633;49.932;10.884;2023-09-30T13:58:24;19.78;57.00
66722;SHT31;53633;49.932;10.884;2023-09-30T14:00:51;19.85;57.50
66722;SHT31;53633;49.932;10.884;2023-09-30T14:03:19;19.88;58.16
66722;SHT31;53633;49.932;10.884;2023-09-30T14:05:46;19.78;58.60
66722;SHT31;53633;49.932;10.884;2023-09-30T14:08:13;19.79;58.27
66722;SHT31;53633;49.932;10.884;2023-09-30T14:10:40;19.87;58.33
66722;SHT31;53633;49.932;10.884;2023-09-30T14:13:06;19.78;58.65
66722;SHT31;53633;49.932;10.884;2023-09-30T14:15:33;19.85;58.60
66722;SHT31;53633;49.932;10.884;2023-09-30T14:18:00;19.78;58.51
66722;SHT31;53633;49.932;10.884;2023-09-30T14:20:28;19.74;59.96
66722;SHT31;53633;49.932;10.884;2023-09-30T14:22:55;19.68;59.93
66722;SHT31;53633;49.932;10.884;2023-09-30T14:25:21;19.53;60.03
66722;SHT31;53633;49.932;10.884;2023-09-30T14:27:48;19.49;60.38
66722;SHT31;53633;49.932;10.884;2023-09-30T14:30:15;19.64;59.58
66722;SHT31;53633;49.932;10.884;2023-09-30T14:32:42;19.66;59.84
66722;SHT31;53633;49.932;10.884;2023-09-30T14:35:09;19.75;59.84
66722;SHT31;53633;49.932;10.884;2023-09-30T14:37:37;19.77;60.18
66722;SHT31;53633;49.932;10.884;2023-09-30T14:40:04;19.77;61.04
66722;SHT31;53633;49.932;10.884;2023-09-30T14:42:31;19.67;61.31
66722;SHT31;53633;49.932;10.884;2023-09-30T14:44:58;19.70;59.85
66722;SHT31;53633;49.932;10.884;2023-09-30T14:47:24;19.77;60.03
66722;SHT31;53633;49.932;10.884;2023-09-30T14:49:51;19.82;59.89
66722;SHT31;53633;49.932;10.884;2023-09-30T14:52:18;19.84;60.00
66722;SHT31;53633;49.932;10.884;2023-09-30T14:54:46;19.88;60.01
66722;SHT31;53633;49.932;10.884;2023-09-30T14:57:12;19.81;60.52
66722;SHT31;53633;49.932;10.884;2023-09-30T14:59:39;19.78;61.42
66722;SHT31;53633;49.932;10.884;2023-09-30T15:02:06;19.61;61.58
66722;SHT31;53633;49.932;10.884;2023-09-30T15:04:33;19.68;61.26
66722;SHT31;53633;49.932;10.884;2023-09-30T15:07:00;19.74;61.65
66722;SHT31;53633;49.932;10.884;2023-09-30T15:09:27;19.75;61.38
66722;SHT31;53633;49.932;10.884;2023-09-30T15:11:55;19.71;62.01
66722;SHT31;53633;49.932;10.884;2023-09-30T15:14:22;19.75;61.84
66722;SHT31;53633;49.932;10.884;2023-09-30T15:16:48;19.73;62.48
66722;SHT31;53633;49.932;10.884;2023-09-30T15:19:15;19.68;61.68